sensor_id;sensor_type;location;lat;lon;timestamp;P1;durP1;ratioP1;P2;durP2;ratioP2
58097;SDS011;43913;55.940;37.504;2022-12-10T00:00:33;29.73;;;17.40;;
58097;SDS011;43913;55.940;37.504;2022-12-10T00:02:58;28.20;;;16.33;;
58097;SDS011;43913;55.940;37.504;2022-12-10T00:05:24;27.92;;;17.20;;
58097;SDS011;43913;55.940;37.504;2022-12-10T00:07:50;28.58;;;15.80;;
58097;SDS011;43913;55.940;37.504;2022-12-10T00:10:15;28.45;;;17.02;;
58097;SDS011;43913;55.940;37.504;2022-12-10T00:12:41;23.13;;;15.25;;
58097;SDS011;43913;55.940;37.504;2022-12-10T00:15:07;26.85;;;15.45;;
58097;SDS011;43913;55.940;37.504;2022-12-10T00:17:33;22.80;;;15.13;;
58097;SDS011;43913;55.940;37.504;2022-12-10T00:19:58;25.00;;;17.38;;
58097;SDS011;43913;55.940;37.504;2022-12-10T00:22:24;24.23;;;15.65;;
58097;SDS011;43913;55.940;37.504;2022-12-10T00:24:50;24.40;;;15.68;;
58097;SDS011;43913;55.940;37.504;2022-12-10T00:27:15;23.80;;;14.98;;
58097;SDS011;43913;55.940;37.504;2022-12-10T00:29:41;23.17;;;14.13;;
58097;SDS011;43913;55.940;37.504;2022-12-10T00:32:07;27.98;;;15.07;;
58097;SDS011;43913;55.940;37.504;2022-12-10T00:34:32;21.67;;;12.90;;
58097;SDS011;43913;55.940;37.504;2022-12-10T00:36:58;25.80;;;14.35;;
58097;SDS011;43913;55.940;37.504;2022-12-10T00:39:24;24.50;;;14.25;;
58097;SDS011;43913;55.940;37.504;2022-12-10T00:41:49;26.45;;;14.40;;
58097;SDS011;43913;55.940;37.504;2022-12-10T00:44:15;23.98;;;13.70;;
58097;SDS011;43913;55.940;37.504;2022-12-10T00:46:42;26.15;;;13.93;;
58097;SDS011;43913;55.940;37.504;2022-12-10T00:49:08;22.33;;;14.40;;
58097;SDS011;43913;55.940;37.504;2022-12-10T00:51:34;22.73;;;13.75;;
58097;SDS011;43913;55.940;37.504;2022-12-10T00:53:59;22.67;;;14.23;;
58097;SDS011;43913;55.940;37.504;2022-12-10T00:56:26;24.05;;;13.45;;
58097;SDS011;43913;55.940;37.504;2022-12-10T00:58:53;20.70;;;13.07;;
58097;SDS011;43913;55.940;37.504;2022-12-10T01:03:47;21.85;;;15.07;;
58097;SDS011;43913;55.940;37.504;2022-12-10T01:06:15;24.17;;;13.65;;
58097;SDS011;43913;55.940;37.504;2022-12-10T01:08:44;21.30;;;12.73;;
58097;SDS011;43913;55.940;37.504;2022-12-10T01:11:10;20.23;;;13.23;;
58097;SDS011;43913;55.940;37.504;2022-12-10T01:13:37;24.02;;;14.32;;
58097;SDS011;43913;55.940;37.504;2022-12-10T01:16:04;24.85;;;13.80;;
58097;SDS011;43913;55.940;37.504;2022-12-10T01:18:31;24.23;;;14.35;;
58097;SDS011;43913;55.940;37.504;2022-12-10T01:21:02;23.00;;;12.95;;
58097;SDS011;43913;55.940;37.504;2022-12-10T01:23:30;25.38;;;13.35;;
58097;SDS011;43913;55.940;37.504;2022-12-10T01:26:02;23.95;;;12.93;;
58097;SDS011;43913;55.940;37.504;2022-12-10T01:28:30;23.52;;;14.20;;
58097;SDS011;43913;55.940;37.504;2022-12-10T01:30:59;19.42;;;12.25;;
58097;SDS011;43913;55.940;37.504;2022-12-10T01:33:25;21.40;;;13.00;;
58097;SDS011;43913;55.940;37.504;2022-12-10T01:35:52;23.02;;;12.95;;
58097;SDS011;43913;55.940;37.504;2022-12-10T01:38:18;23.80;;;13.85;;
58097;SDS011;43913;55.940;37.504;2022-12-10T01:40:43;21.50;;;13.07;;
58097;SDS011;43913;55.940;37.504;2022-12-10T01:43:13;24.17;;;13.93;;
58097;SDS011;43913;55.940;37.504;2022-12-10T01:45:40;18.90;;;12.63;;
58097;SDS011;43913;55.940;37.504;2022-12-10T01:48:05;23.70;;;13.65;;
58097;SDS011;43913;55.940;37.504;2022-12-10T01:50:31;21.88;;;12.77;;
58097;SDS011;43913;55.940;37.504;2022-12-10T01:52:57;24.50;;;13.75;;
58097;SDS011;43913;55.940;37.504;2022-12-10T01:58:05;22.85;;;14.77;;
58097;SDS011;43913;55.940;37.504;2022-12-10T02:00:31;22.38;;;12.43;;
58097;SDS011;43913;55.940;37.504;2022-12-10T02:03:02;24.00;;;13.95;;
58097;SDS011;43913;55.940;37.504;2022-12-10T02:05:33;24.63;;;14.63;;
58097;SDS011;43913;55.940;37.504;2022-12-10T02:13:11;23.48;;;12.93;;
58097;SDS011;43913;55.940;37.504;2022-12-10T02:15:41;21.10;;;12.43;;
58097;SDS011;43913;55.940;37.504;2022-12-10T02:18:43;22.60;;;14.07;;
58097;SDS011;43913;55.940;37.504;2022-12-10T02:21:19;24.10;;;13.57;;
58097;SDS011;43913;55.940;37.504;2022-12-10T02:23:50;27.92;;;14.57;;
58097;SDS011;43913;55.940;37.504;2022-12-10T02:26:36;23.98;;;13.77;;
58097;SDS011;43913;55.940;37.504;2022-12-10T02:31:47;28.45;;;14.20;;
58097;SDS011;43913;55.940;37.504;2022-12-10T02:34:17;26.77;;;14.32;;
58097;SDS011;43913;55.940;37.504;2022-12-10T02:36:44;24.50;;;14.48;;
58097;SDS011;43913;55.940;37.504;2022-12-10T02:39:13;25.77;;;16.35;;
58097;SDS011;43913;55.940;37.504;2022-12-10T02:41:47;26.85;;;15.32;;
58097;SDS011;43913;55.940;37.504;2022-12-10T02:44:17;32.28;;;14.80;;
58097;SDS011;43913;55.940;37.504;2022-12-10T02:46:44;33.90;;;16.88;;
58097;SDS011;43913;55.940;37.504;2022-12-10T02:49:14;26.33;;;14.63;;
58097;SDS011;43913;55.940;37.504;2022-12-10T02:51:40;26.92;;;15.25;;
58097;SDS011;43913;55.940;37.504;2022-12-10T02:54:31;30.23;;;15.13;;
58097;SDS011;43913;55.940;37.504;2022-12-10T02:57:02;33.47;;;15.10;;
58097;SDS011;43913;55.940;37.504;2022-12-10T03:02:19;33.13;;;15.77;;
58097;SDS011;43913;55.940;37.504;2022-12-10T03:13:14;35.58;;;16.58;;
58097;SDS011;43913;55.940;37.504;2022-12-10T03:15:40;28.02;;;14.48;;
58097;SDS011;43913;55.940;37.504;2022-12-10T03:18:07;34.08;;;16.00;;
58097;SDS011;43913;55.940;37.504;2022-12-10T03:20:36;36.80;;;16.52;;
58097;SDS011;43913;55.940;37.504;2022-12-10T03:23:03;34.40;;;15.93;;
58097;SDS011;43913;55.940;37.504;2022-12-10T03:25:31;34.10;;;16.90;;
58097;SDS011;43913;55.940;37.504;2022-12-10T03:27:58;32.28;;;17.30;;
58097;SDS011;43913;55.940;37.504;2022-12-10T03:30:25;37.45;;;18.38;;
58097;SDS011;43913;55.940;37.504;2022-12-10T03:32:50;31.17;;;13.40;;
58097;SDS011;43913;55.940;37.504;2022-12-10T03:35:16;33.83;;;15.73;;
58097;SDS011;43913;55.940;37.504;2022-12-10T03:37:44;33.63;;;16.58;;
58097;SDS011;43913;55.940;37.504;2022-12-10T03:40:10;33.53;;;16.52;;
58097;SDS011;43913;55.940;37.504;2022-12-10T03:42:38;33.20;;;17.80;;
58097;SDS011;43913;55.940;37.504;2022-12-10T03:45:04;40.72;;;19.33;;
58097;SDS011;43913;55.940;37.504;2022-12-10T03:47:30;32.20;;;16.10;;
58097;SDS011;43913;55.940;37.504;2022-12-10T03:49:56;39.92;;;18.33;;
58097;SDS011;43913;55.940;37.504;2022-12-10T03:52:22;33.90;;;17.40;;
58097;SDS011;43913;55.940;37.504;2022-12-10T03:54:47;33.55;;;17.80;;
58097;SDS011;43913;55.940;37.504;2022-12-10T03:57:13;31.73;;;17.00;;
58097;SDS011;43913;55.940;37.504;2022-12-10T03:59:39;34.97;;;18.52;;
58097;SDS011;43913;55.940;37.504;2022-12-10T04:02:05;35.15;;;17.98;;
58097;SDS011;43913;55.940;37.504;2022-12-10T04:04:31;38.42;;;18.85;;
58097;SDS011;43913;55.940;37.504;2022-12-10T04:06:56;40.50;;;20.05;;
58097;SDS011;43913;55.940;37.504;2022-12-10T04:09:23;43.13;;;18.98;;
58097;SDS011;43913;55.940;37.504;2022-12-10T04:11:48;42.22;;;20.20;;
58097;SDS011;43913;55.940;37.504;2022-12-10T04:14:14;39.28;;;20.90;;
58097;SDS011;43913;55.940;37.504;2022-12-10T04:16:58;39.08;;;19.05;;
58097;SDS011;43913;55.940;37.504;2022-12-10T04:19:24;40.95;;;21.52;;
58097;SDS011;43913;55.940;37.504;2022-12-10T04:21:50;43.28;;;20.55;;
58097;SDS011;43913;55.940;37.504;2022-12-10T04:24:35;42.17;;;19.88;;
58097;SDS011;43913;55.940;37.504;2022-12-10T04:27:21;45.22;;;21.30;;
58097;SDS011;43913;55.940;37.504;2022-12-10T04:29:48;47.88;;;21.77;;
58097;SDS011;43913;55.940;37.504;2022-12-10T04:32:15;48.25;;;21.73;;
58097;SDS011;43913;55.940;37.504;2022-12-10T04:34:41;50.00;;;22.27;;
58097;SDS011;43913;55.940;37.504;2022-12-10T04:37:06;48.15;;;23.77;;
58097;SDS011;43913;55.940;37.504;2022-12-10T04:39:32;43.30;;;20.42;;
58097;SDS011;43913;55.940;37.504;2022-12-10T04:41:58;42.30;;;22.77;;
58097;SDS011;43913;55.940;37.504;2022-12-10T04:44:25;44.28;;;21.23;;
58097;SDS011;43913;55.940;37.504;2022-12-10T04:46:51;44.60;;;21.95;;
58097;SDS011;43913;55.940;37.504;2022-12-10T04:49:17;39.45;;;20.45;;
58097;SDS011;43913;55.940;37.504;2022-12-10T04:51:43;39.75;;;18.80;;
58097;SDS011;43913;55.940;37.504;2022-12-10T04:54:09;40.70;;;20.92;;
58097;SDS011;43913;55.940;37.504;2022-12-10T04:56:35;45.28;;;20.30;;
58097;SDS011;43913;55.940;37.504;2022-12-10T04:59:01;45.88;;;21.80;;
58097;SDS011;43913;55.940;37.504;2022-12-10T05:01:27;49.17;;;23.20;;
58097;SDS011;43913;55.940;37.504;2022-12-10T05:03:53;46.10;;;21.33;;
58097;SDS011;43913;55.940;37.504;2022-12-10T05:06:19;43.17;;;21.25;;
58097;SDS011;43913;55.940;37.504;2022-12-10T05:08:45;39.00;;;20.30;;
58097;SDS011;43913;55.940;37.504;2022-12-10T05:11:13;37.92;;;20.52;;
58097;SDS011;43913;55.940;37.504;2022-12-10T05:13:42;45.80;;;20.70;;
58097;SDS011;43913;55.940;37.504;2022-12-10T05:16:09;38.63;;;19.88;;
58097;SDS011;43913;55.940;37.504;2022-12-10T05:18:36;42.80;;;18.42;;
58097;SDS011;43913;55.940;37.504;2022-12-10T05:21:03;39.42;;;19.75;;
58097;SDS011;43913;55.940;37.504;2022-12-10T05:23:30;32.33;;;18.48;;
58097;SDS011;43913;55.940;37.504;2022-12-10T05:26:00;36.40;;;18.85;;
58097;SDS011;43913;55.940;37.504;2022-12-10T05:28:28;34.35;;;19.23;;
58097;SDS011;43913;55.940;37.504;2022-12-10T05:30:55;37.88;;;18.13;;
58097;SDS011;43913;55.940;37.504;2022-12-10T05:33:21;34.33;;;18.63;;
58097;SDS011;43913;55.940;37.504;2022-12-10T05:35:54;39.45;;;19.58;;
58097;SDS011;43913;55.940;37.504;2022-12-10T05:38:23;38.30;;;18.77;;
58097;SDS011;43913;55.940;37.504;2022-12-10T05:40:52;38.45;;;19.00;;
58097;SDS011;43913;55.940;37.504;2022-12-10T05:43:18;30.42;;;20.17;;
58097;SDS011;43913;55.940;37.504;2022-12-10T05:45:44;39.67;;;20.40;;
58097;SDS011;43913;55.940;37.504;2022-12-10T05:48:17;35.92;;;18.58;;
58097;SDS011;43913;55.940;37.504;2022-12-10T05:50:43;33.55;;;18.67;;
58097;SDS011;43913;55.940;37.504;2022-12-10T05:53:09;35.38;;;20.30;;
58097;SDS011;43913;55.940;37.504;2022-12-10T05:55:35;41.50;;;19.67;;
58097;SDS011;43913;55.940;37.504;2022-12-10T05:58:01;37.45;;;21.35;;
58097;SDS011;43913;55.940;37.504;2022-12-10T06:00:27;36.83;;;19.55;;
58097;SDS011;43913;55.940;37.504;2022-12-10T06:02:54;37.03;;;19.55;;
58097;SDS011;43913;55.940;37.504;2022-12-10T06:05:20;34.78;;;19.92;;
58097;SDS011;43913;55.940;37.504;2022-12-10T06:07:46;42.13;;;20.75;;
58097;SDS011;43913;55.940;37.504;2022-12-10T06:10:12;33.10;;;19.27;;
58097;SDS011;43913;55.940;37.504;2022-12-10T06:12:38;38.38;;;19.80;;
58097;SDS011;43913;55.940;37.504;2022-12-10T06:15:04;37.38;;;20.67;;
58097;SDS011;43913;55.940;37.504;2022-12-10T06:17:30;40.50;;;21.92;;
58097;SDS011;43913;55.940;37.504;2022-12-10T06:19:57;34.35;;;19.40;;
58097;SDS011;43913;55.940;37.504;2022-12-10T06:22:22;36.03;;;19.15;;
58097;SDS011;43913;55.940;37.504;2022-12-10T06:24:48;35.08;;;20.55;;
58097;SDS011;43913;55.940;37.504;2022-12-10T06:27:14;34.95;;;18.65;;
58097;SDS011;43913;55.940;37.504;2022-12-10T06:29:40;38.03;;;21.05;;
58097;SDS011;43913;55.940;37.504;2022-12-10T06:32:06;37.58;;;20.10;;
58097;SDS011;43913;55.940;37.504;2022-12-10T06:34:32;42.75;;;21.67;;
58097;SDS011;43913;55.940;37.504;2022-12-10T06:36:57;37.67;;;21.20;;
58097;SDS011;43913;55.940;37.504;2022-12-10T06:39:23;41.35;;;20.88;;
58097;SDS011;43913;55.940;37.504;2022-12-10T06:41:49;39.28;;;22.88;;
58097;SDS011;43913;55.940;37.504;2022-12-10T06:44:14;37.30;;;20.83;;
58097;SDS011;43913;55.940;37.504;2022-12-10T06:46:40;39.25;;;19.92;;
58097;SDS011;43913;55.940;37.504;2022-12-10T06:49:06;38.80;;;20.27;;
58097;SDS011;43913;55.940;37.504;2022-12-10T06:51:33;35.55;;;20.67;;
58097;SDS011;43913;55.940;37.504;2022-12-10T06:53:58;51.97;;;23.35;;
58097;SDS011;43913;55.940;37.504;2022-12-10T06:56:24;42.28;;;22.50;;
58097;SDS011;43913;55.940;37.504;2022-12-10T06:58:51;39.75;;;22.25;;
58097;SDS011;43913;55.940;37.504;2022-12-10T07:01:18;41.60;;;22.05;;
58097;SDS011;43913;55.940;37.504;2022-12-10T07:03:50;38.95;;;20.75;;
58097;SDS011;43913;55.940;37.504;2022-12-10T07:06:20;43.30;;;23.42;;
58097;SDS011;43913;55.940;37.504;2022-12-10T07:08:47;44.25;;;23.35;;
58097;SDS011;43913;55.940;37.504;2022-12-10T07:11:14;39.92;;;24.08;;
58097;SDS011;43913;55.940;37.504;2022-12-10T07:13:40;37.30;;;21.85;;
58097;SDS011;43913;55.940;37.504;2022-12-10T07:16:20;41.72;;;23.40;;
58097;SDS011;43913;55.940;37.504;2022-12-10T07:18:47;39.08;;;24.05;;
58097;SDS011;43913;55.940;37.504;2022-12-10T07:21:18;43.67;;;23.92;;
58097;SDS011;43913;55.940;37.504;2022-12-10T07:26:15;44.20;;;22.25;;
58097;SDS011;43913;55.940;37.504;2022-12-10T07:28:40;39.42;;;22.45;;
58097;SDS011;43913;55.940;37.504;2022-12-10T07:31:06;45.42;;;23.65;;
58097;SDS011;43913;55.940;37.504;2022-12-10T07:33:34;43.20;;;22.05;;
58097;SDS011;43913;55.940;37.504;2022-12-10T07:36:03;38.13;;;22.02;;
58097;SDS011;43913;55.940;37.504;2022-12-10T07:38:34;42.37;;;25.13;;
58097;SDS011;43913;55.940;37.504;2022-12-10T07:41:03;45.15;;;22.83;;
58097;SDS011;43913;55.940;37.504;2022-12-10T07:43:32;48.75;;;22.95;;
58097;SDS011;43913;55.940;37.504;2022-12-10T07:46:06;41.35;;;21.25;;
58097;SDS011;43913;55.940;37.504;2022-12-10T07:48:36;39.25;;;21.65;;
58097;SDS011;43913;55.940;37.504;2022-12-10T07:51:02;44.90;;;22.98;;
58097;SDS011;43913;55.940;37.504;2022-12-10T07:53:28;44.65;;;21.67;;
58097;SDS011;43913;55.940;37.504;2022-12-10T07:55:54;41.35;;;22.35;;
58097;SDS011;43913;55.940;37.504;2022-12-10T07:58:19;37.10;;;21.15;;
58097;SDS011;43913;55.940;37.504;2022-12-10T08:00:45;35.00;;;21.58;;
58097;SDS011;43913;55.940;37.504;2022-12-10T08:03:11;43.42;;;21.13;;
58097;SDS011;43913;55.940;37.504;2022-12-10T08:05:36;43.30;;;22.67;;
58097;SDS011;43913;55.940;37.504;2022-12-10T08:08:03;39.13;;;23.08;;
58097;SDS011;43913;55.940;37.504;2022-12-10T08:10:28;33.00;;;21.13;;
58097;SDS011;43913;55.940;37.504;2022-12-10T08:12:54;41.17;;;22.35;;
58097;SDS011;43913;55.940;37.504;2022-12-10T08:15:20;36.13;;;21.33;;
58097;SDS011;43913;55.940;37.504;2022-12-10T08:17:46;37.95;;;21.20;;
58097;SDS011;43913;55.940;37.504;2022-12-10T08:20:11;41.85;;;21.17;;
58097;SDS011;43913;55.940;37.504;2022-12-10T08:22:37;40.63;;;22.15;;
58097;SDS011;43913;55.940;37.504;2022-12-10T08:25:04;36.03;;;20.42;;
58097;SDS011;43913;55.940;37.504;2022-12-10T08:27:30;40.42;;;20.00;;
58097;SDS011;43913;55.940;37.504;2022-12-10T08:29:56;39.42;;;20.48;;
58097;SDS011;43913;55.940;37.504;2022-12-10T08:32:22;35.40;;;20.08;;
58097;SDS011;43913;55.940;37.504;2022-12-10T08:34:48;39.33;;;21.02;;
58097;SDS011;43913;55.940;37.504;2022-12-10T08:37:13;37.00;;;19.33;;
58097;SDS011;43913;55.940;37.504;2022-12-10T08:39:40;39.05;;;20.90;;
58097;SDS011;43913;55.940;37.504;2022-12-10T08:42:07;35.45;;;20.67;;
58097;SDS011;43913;55.940;37.504;2022-12-10T08:44:32;37.03;;;20.33;;
58097;SDS011;43913;55.940;37.504;2022-12-10T08:46:58;38.33;;;21.00;;
58097;SDS011;43913;55.940;37.504;2022-12-10T08:49:24;35.20;;;18.83;;
58097;SDS011;43913;55.940;37.504;2022-12-10T08:51:49;42.78;;;24.45;;
58097;SDS011;43913;55.940;37.504;2022-12-10T08:54:15;43.20;;;21.55;;
58097;SDS011;43913;55.940;37.504;2022-12-10T08:56:41;41.50;;;19.33;;
58097;SDS011;43913;55.940;37.504;2022-12-10T08:59:06;43.50;;;22.73;;
58097;SDS011;43913;55.940;37.504;2022-12-10T09:01:33;40.15;;;21.90;;
58097;SDS011;43913;55.940;37.504;2022-12-10T09:03:58;38.17;;;20.92;;
58097;SDS011;43913;55.940;37.504;2022-12-10T09:06:25;43.03;;;21.67;;
58097;SDS011;43913;55.940;37.504;2022-12-10T09:08:51;42.13;;;21.15;;
58097;SDS011;43913;55.940;37.504;2022-12-10T09:11:19;41.80;;;20.83;;
58097;SDS011;43913;55.940;37.504;2022-12-10T09:13:45;45.83;;;22.25;;
58097;SDS011;43913;55.940;37.504;2022-12-10T09:16:11;43.75;;;21.67;;
58097;SDS011;43913;55.940;37.504;2022-12-10T09:18:37;41.05;;;22.98;;
58097;SDS011;43913;55.940;37.504;2022-12-10T09:21:07;38.47;;;21.52;;
58097;SDS011;43913;55.940;37.504;2022-12-10T09:23:34;44.58;;;23.02;;
58097;SDS011;43913;55.940;37.504;2022-12-10T09:26:04;48.15;;;23.52;;
58097;SDS011;43913;55.940;37.504;2022-12-10T09:28:32;49.83;;;23.50;;
58097;SDS011;43913;55.940;37.504;2022-12-10T09:30:58;45.33;;;23.20;;
58097;SDS011;43913;55.940;37.504;2022-12-10T09:33:25;52.95;;;24.60;;
58097;SDS011;43913;55.940;37.504;2022-12-10T09:35:51;47.83;;;24.48;;
58097;SDS011;43913;55.940;37.504;2022-12-10T09:38:17;52.47;;;22.65;;
58097;SDS011;43913;55.940;37.504;2022-12-10T09:41:02;55.35;;;27.00;;
58097;SDS011;43913;55.940;37.504;2022-12-10T09:46:14;48.95;;;24.48;;
58097;SDS011;43913;55.940;37.504;2022-12-10T09:51:44;48.03;;;25.77;;
58097;SDS011;43913;55.940;37.504;2022-12-10T09:56:51;55.95;;;28.15;;
58097;SDS011;43913;55.940;37.504;2022-12-10T09:59:23;53.78;;;25.95;;
58097;SDS011;43913;55.940;37.504;2022-12-10T10:02:26;55.15;;;27.50;;
58097;SDS011;43913;55.940;37.504;2022-12-10T10:04:53;48.92;;;25.35;;
58097;SDS011;43913;55.940;37.504;2022-12-10T10:07:22;50.95;;;26.38;;
58097;SDS011;43913;55.940;37.504;2022-12-10T10:09:50;45.42;;;24.50;;
58097;SDS011;43913;55.940;37.504;2022-12-10T10:12:17;59.13;;;25.77;;
58097;SDS011;43913;55.940;37.504;2022-12-10T10:14:43;60.63;;;27.65;;
58097;SDS011;43913;55.940;37.504;2022-12-10T10:17:16;57.47;;;26.23;;
58097;SDS011;43913;55.940;37.504;2022-12-10T10:19:44;54.38;;;26.42;;
58097;SDS011;43913;55.940;37.504;2022-12-10T10:22:10;51.28;;;25.52;;
58097;SDS011;43913;55.940;37.504;2022-12-10T10:24:40;54.75;;;25.95;;
58097;SDS011;43913;55.940;37.504;2022-12-10T10:27:15;52.85;;;26.95;;
58097;SDS011;43913;55.940;37.504;2022-12-10T10:29:50;57.55;;;27.92;;
58097;SDS011;43913;55.940;37.504;2022-12-10T10:32:24;59.65;;;26.35;;
58097;SDS011;43913;55.940;37.504;2022-12-10T10:34:55;57.15;;;27.45;;
58097;SDS011;43913;55.940;37.504;2022-12-10T10:37:27;52.35;;;26.50;;
58097;SDS011;43913;55.940;37.504;2022-12-10T10:40:23;54.17;;;27.73;;
58097;SDS011;43913;55.940;37.504;2022-12-10T10:42:52;46.72;;;25.83;;
58097;SDS011;43913;55.940;37.504;2022-12-10T10:50:37;53.65;;;25.42;;
58097;SDS011;43913;55.940;37.504;2022-12-10T10:55:54;50.83;;;27.80;;
58097;SDS011;43913;55.940;37.504;2022-12-10T11:01:26;45.95;;;24.35;;
58097;SDS011;43913;55.940;37.504;2022-12-10T11:06:39;48.65;;;25.23;;
58097;SDS011;43913;55.940;37.504;2022-12-10T11:09:06;54.97;;;30.50;;
58097;SDS011;43913;55.940;37.504;2022-12-10T11:11:36;48.15;;;28.70;;
58097;SDS011;43913;55.940;37.504;2022-12-10T11:14:23;56.95;;;30.50;;
58097;SDS011;43913;55.940;37.504;2022-12-10T11:16:50;56.40;;;29.58;;
58097;SDS011;43913;55.940;37.504;2022-12-10T11:19:20;50.75;;;31.38;;
58097;SDS011;43913;55.940;37.504;2022-12-10T11:21:48;53.90;;;28.73;;
58097;SDS011;43913;55.940;37.504;2022-12-10T11:24:16;49.70;;;27.15;;
58097;SDS011;43913;55.940;37.504;2022-12-10T11:31:54;55.47;;;30.02;;
58097;SDS011;43913;55.940;37.504;2022-12-10T11:37:37;56.33;;;30.15;;
58097;SDS011;43913;55.940;37.504;2022-12-10T11:54:18;49.28;;;27.33;;
58097;SDS011;43913;55.940;37.504;2022-12-10T11:57:37;48.90;;;27.70;;
58097;SDS011;43913;55.940;37.504;2022-12-10T12:00:03;47.30;;;26.48;;
58097;SDS011;43913;55.940;37.504;2022-12-10T12:05:26;47.78;;;26.00;;
58097;SDS011;43913;55.940;37.504;2022-12-10T12:11:16;59.42;;;29.83;;
58097;SDS011;43913;55.940;37.504;2022-12-10T12:14:13;49.45;;;26.27;;
58097;SDS011;43913;55.940;37.504;2022-12-10T12:19:37;46.47;;;25.58;;
58097;SDS011;43913;55.940;37.504;2022-12-10T12:22:15;48.38;;;26.48;;
58097;SDS011;43913;55.940;37.504;2022-12-10T12:24:44;43.63;;;27.27;;
58097;SDS011;43913;55.940;37.504;2022-12-10T12:32:45;40.55;;;25.52;;
58097;SDS011;43913;55.940;37.504;2022-12-10T12:38:27;42.92;;;25.42;;
58097;SDS011;43913;55.940;37.504;2022-12-10T12:46:01;39.55;;;23.35;;
58097;SDS011;43913;55.940;37.504;2022-12-10T12:48:34;42.58;;;23.30;;
58097;SDS011;43913;55.940;37.504;2022-12-10T12:53:44;44.55;;;24.02;;
58097;SDS011;43913;55.940;37.504;2022-12-10T12:59:24;41.70;;;22.15;;
58097;SDS011;43913;55.940;37.504;2022-12-10T13:04:55;37.72;;;21.08;;
58097;SDS011;43913;55.940;37.504;2022-12-10T13:10:29;39.20;;;21.02;;
58097;SDS011;43913;55.940;37.504;2022-12-10T13:12:49;41.88;;;23.35;;
58097;SDS011;43913;55.940;37.504;2022-12-10T13:15:18;38.70;;;22.48;;
58097;SDS011;43913;55.940;37.504;2022-12-10T13:20:45;42.65;;;23.90;;
58097;SDS011;43913;55.940;37.504;2022-12-10T13:23:47;35.40;;;20.88;;
58097;SDS011;43913;55.940;37.504;2022-12-10T13:26:27;38.72;;;20.67;;
58097;SDS011;43913;55.940;37.504;2022-12-10T13:28:54;38.40;;;23.38;;
58097;SDS011;43913;55.940;37.504;2022-12-10T13:31:42;40.85;;;24.23;;
58097;SDS011;43913;55.940;37.504;2022-12-10T13:39:35;43.63;;;26.35;;
58097;SDS011;43913;55.940;37.504;2022-12-10T13:44:59;36.15;;;23.88;;
58097;SDS011;43913;55.940;37.504;2022-12-10T13:50:02;41.05;;;23.38;;
58097;SDS011;43913;55.940;37.504;2022-12-10T13:52:32;38.88;;;22.73;;
58097;SDS011;43913;55.940;37.504;2022-12-10T13:56:05;38.65;;;22.30;;
58097;SDS011;43913;55.940;37.504;2022-12-10T14:00:49;36.60;;;20.35;;
58097;SDS011;43913;55.940;37.504;2022-12-10T14:04:14;38.60;;;21.50;;
58097;SDS011;43913;55.940;37.504;2022-12-10T14:06:20;38.20;;;21.67;;
58097;SDS011;43913;55.940;37.504;2022-12-10T14:11:57;32.50;;;20.15;;
58097;SDS011;43913;55.940;37.504;2022-12-10T14:16:59;32.38;;;19.38;;
58097;SDS011;43913;55.940;37.504;2022-12-10T14:19:28;33.58;;;20.52;;
58097;SDS011;43913;55.940;37.504;2022-12-10T14:21:54;36.33;;;21.45;;
58097;SDS011;43913;55.940;37.504;2022-12-10T14:24:28;35.58;;;20.38;;
58097;SDS011;43913;55.940;37.504;2022-12-10T14:26:58;38.10;;;21.67;;
58097;SDS011;43913;55.940;37.504;2022-12-10T14:29:30;35.63;;;20.90;;
58097;SDS011;43913;55.940;37.504;2022-12-10T14:31:56;37.03;;;21.48;;
58097;SDS011;43913;55.940;37.504;2022-12-10T14:34:23;38.40;;;22.00;;
58097;SDS011;43913;55.940;37.504;2022-12-10T14:36:52;36.28;;;21.33;;
58097;SDS011;43913;55.940;37.504;2022-12-10T14:39:26;31.88;;;19.85;;
58097;SDS011;43913;55.940;37.504;2022-12-10T14:41:55;33.13;;;19.58;;
58097;SDS011;43913;55.940;37.504;2022-12-10T14:44:22;28.85;;;18.65;;
58097;SDS011;43913;55.940;37.504;2022-12-10T14:46:48;37.30;;;19.98;;
58097;SDS011;43913;55.940;37.504;2022-12-10T14:49:25;34.22;;;18.70;;
58097;SDS011;43913;55.940;37.504;2022-12-10T14:51:51;34.17;;;19.67;;
58097;SDS011;43913;55.940;37.504;2022-12-10T14:54:30;33.60;;;18.15;;
58097;SDS011;43913;55.940;37.504;2022-12-10T14:56:59;31.92;;;19.27;;
58097;SDS011;43913;55.940;37.504;2022-12-10T14:59:34;30.02;;;18.17;;
58097;SDS011;43913;55.940;37.504;2022-12-10T15:02:04;36.17;;;20.70;;
58097;SDS011;43913;55.940;37.504;2022-12-10T15:04:39;31.95;;;17.95;;
58097;SDS011;43913;55.940;37.504;2022-12-10T15:07:08;31.50;;;19.23;;
58097;SDS011;43913;55.940;37.504;2022-12-10T15:09:38;28.83;;;17.77;;
58097;SDS011;43913;55.940;37.504;2022-12-10T15:12:04;29.08;;;18.02;;
58097;SDS011;43913;55.940;37.504;2022-12-10T15:14:30;31.17;;;18.05;;
58097;SDS011;43913;55.940;37.504;2022-12-10T15:16:56;33.80;;;17.38;;
58097;SDS011;43913;55.940;37.504;2022-12-10T15:22:39;24.63;;;15.65;;
58097;SDS011;43913;55.940;37.504;2022-12-10T15:27:19;28.15;;;16.63;;
58097;SDS011;43913;55.940;37.504;2022-12-10T15:29:49;28.50;;;16.08;;
58097;SDS011;43913;55.940;37.504;2022-12-10T15:32:19;29.40;;;17.33;;
58097;SDS011;43913;55.940;37.504;2022-12-10T15:34:48;29.38;;;17.60;;
58097;SDS011;43913;55.940;37.504;2022-12-10T15:37:39;27.55;;;16.20;;
58097;SDS011;43913;55.940;37.504;2022-12-10T15:40:05;27.35;;;16.20;;
58097;SDS011;43913;55.940;37.504;2022-12-10T15:42:48;26.77;;;16.77;;
58097;SDS011;43913;55.940;37.504;2022-12-10T15:45:27;29.40;;;17.00;;
58097;SDS011;43913;55.940;37.504;2022-12-10T15:48:10;27.00;;;15.30;;
58097;SDS011;43913;55.940;37.504;2022-12-10T15:50:38;25.08;;;14.40;;
58097;SDS011;43913;55.940;37.504;2022-12-10T15:53:04;26.70;;;16.45;;
58097;SDS011;43913;55.940;37.504;2022-12-10T15:55:30;24.83;;;15.10;;
58097;SDS011;43913;55.940;37.504;2022-12-10T15:57:55;24.08;;;14.63;;
58097;SDS011;43913;55.940;37.504;2022-12-10T16:00:23;26.70;;;15.85;;
58097;SDS011;43913;55.940;37.504;2022-12-10T16:05:23;22.30;;;14.07;;
58097;SDS011;43913;55.940;37.504;2022-12-10T16:08:18;22.48;;;15.00;;
58097;SDS011;43913;55.940;37.504;2022-12-10T16:10:49;24.98;;;14.77;;
58097;SDS011;43913;55.940;37.504;2022-12-10T16:13:20;21.67;;;15.10;;
58097;SDS011;43913;55.940;37.504;2022-12-10T16:18:23;24.45;;;15.38;;
58097;SDS011;43913;55.940;37.504;2022-12-10T16:20:49;22.73;;;15.15;;
58097;SDS011;43913;55.940;37.504;2022-12-10T16:23:18;23.30;;;14.05;;
58097;SDS011;43913;55.940;37.504;2022-12-10T16:25:44;20.75;;;14.20;;
58097;SDS011;43913;55.940;37.504;2022-12-10T16:28:13;21.15;;;12.60;;
58097;SDS011;43913;55.940;37.504;2022-12-10T16:30:44;17.88;;;12.13;;
58097;SDS011;43913;55.940;37.504;2022-12-10T16:33:12;22.75;;;13.35;;
58097;SDS011;43913;55.940;37.504;2022-12-10T16:35:38;22.50;;;14.98;;
58097;SDS011;43913;55.940;37.504;2022-12-10T16:38:04;22.23;;;13.48;;